sensor_id;sensor_type;location;lat;lon;timestamp;pressure;altitude;pressure_sealevel;temperature;humidity
63115;BME280;49208;50.874;6.466;2023-05-03T06:02:38;101672.72;;;11.04;74.37
63115;BME280;49208;50.874;6.466;2023-05-03T06:05:03;101672.28;;;12.16;65.58
63115;BME280;49208;50.874;6.466;2023-05-03T06:07:30;101675.84;;;12.91;62.23
63115;BME280;49208;50.874;6.466;2023-05-03T06:09:55;101673.16;;;13.89;58.43
63115;BME280;49208;50.874;6.466;2023-05-03T06:12:21;101672.56;;;14.09;53.95
63115;BME280;49208;50.874;6.466;2023-05-03T06:14:46;101678.94;;;14.63;52.28
63115;BME280;49208;50.874;6.466;2023-05-03T06:17:11;101664.91;;;15.33;51.34
63115;BME280;49208;50.874;6.466;2023-05-03T06:19:37;101673.63;;;16.12;48.14
63115;BME280;49208;50.874;6.466;2023-05-03T06:22:03;101677.44;;;15.58;47.60
63115;BME280;49208;50.874;6.466;2023-05-03T06:24:29;101679.59;;;16.65;45.69
63115;BME280;49208;50.874;6.466;2023-05-03T06:26:57;101685.78;;;16.89;45.63
63115;BME280;49208;50.874;6.466;2023-05-03T06:29:23;101682.19;;;16.66;43.99
63115;BME280;49208;50.874;6.466;2023-05-03T06:31:48;101680.59;;;16.84;43.31
63115;BME280;49208;50.874;6.466;2023-05-03T06:34:17;101684.47;;;16.99;44.09
63115;BME280;49208;50.874;6.466;2023-05-03T06:36:44;101686.97;;;17.24;43.06
63115;BME280;49208;50.874;6.466;2023-05-03T06:39:09;101689.19;;;17.95;43.35
63115;BME280;49208;50.874;6.466;2023-05-03T06:41:35;101689.94;;;18.17;42.94
63115;BME280;49208;50.874;6.466;2023-05-03T06:44:01;101689.47;;;19.01;42.28
63115;BME280;49208;50.874;6.466;2023-05-03T06:46:27;101688.97;;;19.45;38.38
63115;BME280;49208;50.874;6.466;2023-05-03T06:48:52;101681.41;;;19.52;39.25
63115;BME280;49208;50.874;6.466;2023-05-03T06:51:21;101678.09;;;19.29;38.73
63115;BME280;49208;50.874;6.466;2023-05-03T06:53:52;101669.88;;;19.66;39.94
63115;BME280;49208;50.874;6.466;2023-05-03T06:56:17;101667.66;;;18.69;38.04
63115;BME280;49208;50.874;6.466;2023-05-03T06:58:42;101668.97;;;19.32;38.50
63115;BME280;49208;50.874;6.466;2023-05-03T07:01:08;101662.16;;;19.75;37.01
63115;BME280;49208;50.874;6.466;2023-05-03T07:03:33;101662.66;;;19.66;40.15
63115;BME280;49208;50.874;6.466;2023-05-03T07:05:58;101665.38;;;20.15;40.22
63115;BME280;49208;50.874;6.466;2023-05-03T07:08:24;101660.63;;;20.83;38.76
63115;BME280;49208;50.874;6.466;2023-05-03T07:10:49;101670.69;;;20.33;36.90
63115;BME280;49208;50.874;6.466;2023-05-03T07:13:15;101665.19;;;20.34;35.55
63115;BME280;49208;50.874;6.466;2023-05-03T07:15:40;101664.69;;;20.28;36.20
63115;BME280;49208;50.874;6.466;2023-05-03T07:18:05;101668.13;;;21.08;38.71
63115;BME280;49208;50.874;6.466;2023-05-03T07:20:31;101672.50;;;20.16;37.77
63115;BME280;49208;50.874;6.466;2023-05-03T07:22:56;101667.44;;;20.74;35.99
63115;BME280;49208;50.874;6.466;2023-05-03T07:25:22;101668.75;;;21.13;35.07
63115;BME280;49208;50.874;6.466;2023-05-03T07:27:47;101661.41;;;20.85;37.15
63115;BME280;49208;50.874;6.466;2023-05-03T07:30:13;101663.25;;;21.29;34.25
63115;BME280;49208;50.874;6.466;2023-05-03T07:32:38;101658.56;;;22.04;32.99
63115;BME280;49208;50.874;6.466;2023-05-03T07:35:04;101656.81;;;20.55;34.15
63115;BME280;49208;50.874;6.466;2023-05-03T07:37:31;101660.97;;;20.76;35.28
63115;BME280;49208;50.874;6.466;2023-05-03T07:39:56;101662.09;;;20.88;35.02
63115;BME280;49208;50.874;6.466;2023-05-03T07:42:22;101650.81;;;21.40;33.33
63115;BME280;49208;50.874;6.466;2023-05-03T07:44:47;101644.00;;;20.89;34.66
63115;BME280;49208;50.874;6.466;2023-05-03T07:47:12;101644.28;;;20.84;35.82
63115;BME280;49208;50.874;6.466;2023-05-03T07:49:38;101652.78;;;20.78;35.38
63115;BME280;49208;50.874;6.466;2023-05-03T07:52:03;101643.13;;;21.18;34.75
63115;BME280;49208;50.874;6.466;2023-05-03T07:54:29;101641.63;;;20.98;36.08
63115;BME280;49208;50.874;6.466;2023-05-03T07:56:54;101648.44;;;21.20;35.04
63115;BME280;49208;50.874;6.466;2023-05-03T07:59:20;101638.28;;;20.79;33.89
63115;BME280;49208;50.874;6.466;2023-05-03T08:01:45;101631.88;;;20.18;35.22
63115;BME280;49208;50.874;6.466;2023-05-03T08:04:11;101628.97;;;20.37;36.78
63115;BME280;49208;50.874;6.466;2023-05-03T08:06:36;101635.13;;;19.75;36.22
63115;BME280;49208;50.874;6.466;2023-05-03T08:09:03;101623.97;;;19.66;38.59
63115;BME280;49208;50.874;6.466;2023-05-03T08:11:29;101625.41;;;19.22;36.15
63115;BME280;49208;50.874;6.466;2023-05-03T08:13:55;101622.59;;;18.54;37.71
63115;BME280;49208;50.874;6.466;2023-05-03T08:16:20;101621.59;;;18.37;40.62
63115;BME280;49208;50.874;6.466;2023-05-03T08:18:46;101619.91;;;17.59;39.28
63115;BME280;49208;50.874;6.466;2023-05-03T08:21:11;101619.66;;;18.03;43.50
63115;BME280;49208;50.874;6.466;2023-05-03T08:23:38;101631.25;;;17.66;39.74
63115;BME280;49208;50.874;6.466;2023-05-03T08:26:04;101632.75;;;17.33;41.70
63115;BME280;49208;50.874;6.466;2023-05-03T08:28:31;101629.66;;;17.22;42.16
63115;BME280;49208;50.874;6.466;2023-05-03T08:30:57;101630.97;;;17.32;45.70
63115;BME280;49208;50.874;6.466;2023-05-03T08:33:23;101643.50;;;17.33;42.45
63115;BME280;49208;50.874;6.466;2023-05-03T08:35:48;101641.97;;;17.28;43.91
63115;BME280;49208;50.874;6.466;2023-05-03T08:38:13;101637.25;;;16.92;40.21
63115;BME280;49208;50.874;6.466;2023-05-03T08:40:39;101634.78;;;16.87;44.91
63115;BME280;49208;50.874;6.466;2023-05-03T08:43:08;101626.28;;;16.54;43.67
63115;BME280;49208;50.874;6.466;2023-05-03T08:45:34;101634.84;;;16.20;44.90
63115;BME280;49208;50.874;6.466;2023-05-03T08:47:59;101627.72;;;16.41;43.54
63115;BME280;49208;50.874;6.466;2023-05-03T08:50:29;101623.91;;;16.46;43.71
63115;BME280;49208;50.874;6.466;2023-05-03T08:52:55;101618.38;;;16.49;45.45
63115;BME280;49208;50.874;6.466;2023-05-03T08:55:21;101617.63;;;16.68;44.09
63115;BME280;49208;50.874;6.466;2023-05-03T08:57:46;101621.31;;;17.08;44.09
63115;BME280;49208;50.874;6.466;2023-05-03T09:00:12;101616.41;;;17.17;44.98
63115;BME280;49208;50.874;6.466;2023-05-03T09:02:38;101614.13;;;17.08;44.98
63115;BME280;49208;50.874;6.466;2023-05-03T09:05:31;101620.44;;;17.07;42.68
63115;BME280;49208;50.874;6.466;2023-05-03T09:08:08;101606.88;;;16.90;40.86
63115;BME280;49208;50.874;6.466;2023-05-03T09:10:39;101608.69;;;16.45;43.42
63115;BME280;49208;50.874;6.466;2023-05-03T09:13:05;101605.44;;;16.59;44.11
63115;BME280;49208;50.874;6.466;2023-05-03T09:15:32;101605.13;;;16.67;42.96
63115;BME280;49208;50.874;6.466;2023-05-03T09:18:24;101611.16;;;16.07;43.74
63115;BME280;49208;50.874;6.466;2023-05-03T09:20:51;101600.22;;;16.34;42.70
63115;BME280;49208;50.874;6.466;2023-05-03T09:25:53;101598.22;;;16.39;42.94
63115;BME280;49208;50.874;6.466;2023-05-03T09:28:19;101590.78;;;16.66;43.28
63115;BME280;49208;50.874;6.466;2023-05-03T09:30:46;101596.31;;;16.63;42.11
63115;BME280;49208;50.874;6.466;2023-05-03T09:33:12;101594.59;;;16.40;42.69
63115;BME280;49208;50.874;6.466;2023-05-03T09:36:02;101596.25;;;16.65;44.16
63115;BME280;49208;50.874;6.466;2023-05-03T09:38:34;101595.66;;;16.78;43.50
63115;BME280;49208;50.874;6.466;2023-05-03T09:41:03;101596.44;;;17.03;44.81
63115;BME280;49208;50.874;6.466;2023-05-03T09:43:31;101585.03;;;16.98;41.36
63115;BME280;49208;50.874;6.466;2023-05-03T09:46:10;101581.91;;;17.07;42.71
63115;BME280;49208;50.874;6.466;2023-05-03T09:48:37;101576.38;;;17.10;41.20
63115;BME280;49208;50.874;6.466;2023-05-03T09:51:03;101574.00;;;16.83;41.97
63115;BME280;49208;50.874;6.466;2023-05-03T09:53:33;101588.31;;;16.62;42.16
63115;BME280;49208;50.874;6.466;2023-05-03T09:56:01;101581.78;;;16.47;42.40
63115;BME280;49208;50.874;6.466;2023-05-03T09:58:27;101570.25;;;16.43;42.67
63115;BME280;49208;50.874;6.466;2023-05-03T10:00:55;101571.63;;;16.53;41.03
63115;BME280;49208;50.874;6.466;2023-05-03T10:03:42;101571.50;;;16.56;43.94
63115;BME280;49208;50.874;6.466;2023-05-03T10:06:23;101566.00;;;16.60;41.47
63115;BME280;49208;50.874;6.466;2023-05-03T10:09:05;101551.28;;;16.68;46.13
63115;BME280;49208;50.874;6.466;2023-05-03T10:11:36;101543.97;;;16.72;43.88
63115;BME280;49208;50.874;6.466;2023-05-03T10:14:03;101553.22;;;16.44;41.96
63115;BME280;49208;50.874;6.466;2023-05-03T10:16:32;101561.69;;;16.55;43.03
63115;BME280;49208;50.874;6.466;2023-05-03T10:19:05;101546.84;;;16.67;44.89
63115;BME280;49208;50.874;6.466;2023-05-03T10:21:54;101546.94;;;16.86;43.06
63115;BME280;49208;50.874;6.466;2023-05-03T10:24:23;101546.63;;;16.94;39.63
63115;BME280;49208;50.874;6.466;2023-05-03T10:26:50;101541.31;;;16.70;40.62
63115;BME280;49208;50.874;6.466;2023-05-03T10:32:35;101541.88;;;16.58;44.62
63115;BME280;49208;50.874;6.466;2023-05-03T10:37:33;101548.53;;;16.70;40.30
63115;BME280;49208;50.874;6.466;2023-05-03T10:40:16;101552.06;;;16.92;41.18
63115;BME280;49208;50.874;6.466;2023-05-03T10:42:49;101553.81;;;16.93;41.46
63115;BME280;49208;50.874;6.466;2023-05-03T10:45:27;101551.47;;;17.25;41.42
63115;BME280;49208;50.874;6.466;2023-05-03T10:48:22;101538.06;;;17.05;42.36
63115;BME280;49208;50.874;6.466;2023-05-03T10:50:48;101539.34;;;17.35;40.47
63115;BME280;49208;50.874;6.466;2023-05-03T10:56:03;101541.88;;;17.57;41.85
63115;BME280;49208;50.874;6.466;2023-05-03T10:58:34;101531.22;;;17.37;37.87
63115;BME280;49208;50.874;6.466;2023-05-03T11:01:02;101547.28;;;17.38;39.29
63115;BME280;49208;50.874;6.466;2023-05-03T11:06:34;101532.72;;;17.24;41.10
63115;BME280;49208;50.874;6.466;2023-05-03T11:09:02;101526.75;;;17.36;40.00
63115;BME280;49208;50.874;6.466;2023-05-03T11:11:28;101521.31;;;17.37;38.90
63115;BME280;49208;50.874;6.466;2023-05-03T11:13:54;101529.38;;;17.56;39.46
63115;BME280;49208;50.874;6.466;2023-05-03T11:16:19;101528.56;;;17.73;39.57
63115;BME280;49208;50.874;6.466;2023-05-03T11:18:46;101521.25;;;17.58;37.90
63115;BME280;49208;50.874;6.466;2023-05-03T11:21:13;101511.28;;;17.41;39.85
63115;BME280;49208;50.874;6.466;2023-05-03T11:23:39;101509.81;;;17.34;39.53
63115;BME280;49208;50.874;6.466;2023-05-03T11:26:05;101501.09;;;17.29;38.94
63115;BME280;49208;50.874;6.466;2023-05-03T11:28:31;101511.47;;;17.36;39.73
63115;BME280;49208;50.874;6.466;2023-05-03T11:30:56;101496.13;;;17.20;37.24
63115;BME280;49208;50.874;6.466;2023-05-03T11:33:22;101499.50;;;17.25;39.13
63115;BME280;49208;50.874;6.466;2023-05-03T11:35:47;101501.91;;;17.31;40.02
63115;BME280;49208;50.874;6.466;2023-05-03T11:38:13;101495.41;;;17.54;39.66
63115;BME280;49208;50.874;6.466;2023-05-03T11:40:38;101494.19;;;17.42;38.36
63115;BME280;49208;50.874;6.466;2023-05-03T11:43:04;101488.50;;;17.48;37.85
63115;BME280;49208;50.874;6.466;2023-05-03T11:45:39;101491.72;;;17.37;39.59
63115;BME280;49208;50.874;6.466;2023-05-03T11:48:06;101494.38;;;17.56;38.13
63115;BME280;49208;50.874;6.466;2023-05-03T11:50:51;101490.69;;;17.40;37.85
63115;BME280;49208;50.874;6.466;2023-05-03T11:53:24;101481.78;;;17.57;40.45
63115;BME280;49208;50.874;6.466;2023-05-03T11:55:52;101486.59;;;17.50;37.53
63115;BME280;49208;50.874;6.466;2023-05-03T11:58:22;101484.19;;;17.63;40.17
63115;BME280;49208;50.874;6.466;2023-05-03T12:00:53;101481.00;;;17.55;37.52
63115;BME280;49208;50.874;6.466;2023-05-03T12:03:28;101481.53;;;17.44;38.34
63115;BME280;49208;50.874;6.466;2023-05-03T12:05:54;101475.47;;;17.58;38.96
63115;BME280;49208;50.874;6.466;2023-05-03T12:08:26;101482.38;;;17.64;38.01
63115;BME280;49208;50.874;6.466;2023-05-03T12:10:52;101480.25;;;17.51;38.70
63115;BME280;49208;50.874;6.466;2023-05-03T12:13:31;101470.00;;;17.41;38.37
63115;BME280;49208;50.874;6.466;2023-05-03T12:16:00;101469.88;;;17.63;38.96
63115;BME280;49208;50.874;6.466;2023-05-03T12:18:25;101472.72;;;17.41;37.44
63115;BME280;49208;50.874;6.466;2023-05-03T12:20:55;101467.59;;;17.53;38.38
63115;BME280;49208;50.874;6.466;2023-05-03T12:23:24;101463.38;;;17.67;40.71
63115;BME280;49208;50.874;6.466;2023-05-03T12:25:51;101456.97;;;17.69;37.09
63115;BME280;49208;50.874;6.466;2023-05-03T12:28:16;101460.63;;;17.87;39.21
63115;BME280;49208;50.874;6.466;2023-05-03T12:30:42;101450.88;;;18.02;38.46
63115;BME280;49208;50.874;6.466;2023-05-03T12:33:08;101443.44;;;18.25;37.50
63115;BME280;49208;50.874;6.466;2023-05-03T12:35:34;101444.72;;;18.35;35.87
63115;BME280;49208;50.874;6.466;2023-05-03T12:38:00;101437.03;;;18.10;35.68
63115;BME280;49208;50.874;6.466;2023-05-03T12:40:29;101452.22;;;17.93;36.47
63115;BME280;49208;50.874;6.466;2023-05-03T12:42:54;101435.66;;;18.01;36.62
63115;BME280;49208;50.874;6.466;2023-05-03T12:45:26;101431.16;;;18.02;35.19
63115;BME280;49208;50.874;6.466;2023-05-03T12:47:52;101431.16;;;18.19;37.97
63115;BME280;49208;50.874;6.466;2023-05-03T12:50:18;101424.31;;;17.94;38.15
63115;BME280;49208;50.874;6.466;2023-05-03T12:52:44;101419.66;;;18.15;36.96
63115;BME280;49208;50.874;6.466;2023-05-03T12:55:09;101417.84;;;18.16;36.51
63115;BME280;49208;50.874;6.466;2023-05-03T12:57:35;101417.06;;;18.14;35.34
63115;BME280;49208;50.874;6.466;2023-05-03T13:00:01;101410.06;;;18.27;36.14
63115;BME280;49208;50.874;6.466;2023-05-03T13:02:27;101410.06;;;18.27;36.09
63115;BME280;49208;50.874;6.466;2023-05-03T13:04:53;101405.44;;;18.47;40.42
63115;BME280;49208;50.874;6.466;2023-05-03T13:07:22;101399.56;;;18.38;36.17
63115;BME280;49208;50.874;6.466;2023-05-03T13:09:50;101402.78;;;18.29;36.07
63115;BME280;49208;50.874;6.466;2023-05-03T13:12:16;101395.41;;;18.33;35.83
63115;BME280;49208;50.874;6.466;2023-05-03T13:14:45;101400.94;;;18.30;36.30
63115;BME280;49208;50.874;6.466;2023-05-03T13:17:10;101394.50;;;18.50;34.94
63115;BME280;49208;50.874;6.466;2023-05-03T13:19:37;101389.94;;;18.34;36.11
63115;BME280;49208;50.874;6.466;2023-05-03T13:22:02;101385.88;;;18.26;35.59
63115;BME280;49208;50.874;6.466;2023-05-03T13:24:28;101381.72;;;17.85;35.44
63115;BME280;49208;50.874;6.466;2023-05-03T13:26:53;101384.13;;;17.72;34.99
63115;BME280;49208;50.874;6.466;2023-05-03T13:29:18;101378.22;;;17.83;35.97
63115;BME280;49208;50.874;6.466;2023-05-03T13:31:44;101375.19;;;18.07;36.83
63115;BME280;49208;50.874;6.466;2023-05-03T13:34:09;101368.16;;;18.04;36.71
63115;BME280;49208;50.874;6.466;2023-05-03T13:36:35;101366.00;;;18.11;37.12
63115;BME280;49208;50.874;6.466;2023-05-03T13:39:00;101366.78;;;18.30;36.88
63115;BME280;49208;50.874;6.466;2023-05-03T13:41:26;101355.50;;;18.40;37.13
63115;BME280;49208;50.874;6.466;2023-05-03T13:43:51;101355.31;;;18.09;36.57
63115;BME280;49208;50.874;6.466;2023-05-03T13:46:17;101347.41;;;18.06;36.32
63115;BME280;49208;50.874;6.466;2023-05-03T13:48:42;101347.22;;;18.09;35.83
63115;BME280;49208;50.874;6.466;2023-05-03T13:51:09;101339.38;;;18.05;37.02
63115;BME280;49208;50.874;6.466;2023-05-03T13:53:35;101334.53;;;18.11;37.90
63115;BME280;49208;50.874;6.466;2023-05-03T13:56:01;101334.06;;;18.03;35.25
63115;BME280;49208;50.874;6.466;2023-05-03T13:58:26;101322.94;;;17.93;35.59
63115;BME280;49208;50.874;6.466;2023-05-03T14:00:52;101321.88;;;17.96;36.24
63115;BME280;49208;50.874;6.466;2023-05-03T14:03:17;101319.97;;;17.98;36.17
63115;BME280;49208;50.874;6.466;2023-05-03T14:05:43;101317.84;;;17.87;35.96
63115;BME280;49208;50.874;6.466;2023-05-03T14:08:09;101323.84;;;17.92;35.37
63115;BME280;49208;50.874;6.466;2023-05-03T14:10:35;101309.50;;;18.09;36.76
63115;BME280;49208;50.874;6.466;2023-05-03T14:13:00;101316.78;;;18.07;35.67
63115;BME280;49208;50.874;6.466;2023-05-03T14:15:26;101302.63;;;18.04;35.69
63115;BME280;49208;50.874;6.466;2023-05-03T14:17:52;101301.53;;;18.08;36.15
63115;BME280;49208;50.874;6.466;2023-05-03T14:20:17;101298.50;;;17.96;37.30
63115;BME280;49208;50.874;6.466;2023-05-03T14:22:43;101301.06;;;18.00;36.34
63115;BME280;49208;50.874;6.466;2023-05-03T14:25:09;101285.34;;;18.08;35.98
63115;BME280;49208;50.874;6.466;2023-05-03T14:27:35;101285.50;;;18.05;36.55
63115;BME280;49208;50.874;6.466;2023-05-03T14:30:01;101283.78;;;18.04;36.76
63115;BME280;49208;50.874;6.466;2023-05-03T14:32:26;101275.69;;;18.04;36.55
63115;BME280;49208;50.874;6.466;2023-05-03T14:34:52;101273.06;;;18.02;36.72
63115;BME280;49208;50.874;6.466;2023-05-03T14:37:17;101268.16;;;17.75;35.84
63115;BME280;49208;50.874;6.466;2023-05-03T14:39:42;101267.84;;;17.82;36.44
63115;BME280;49208;50.874;6.466;2023-05-03T14:42:09;101259.94;;;17.78;37.86
63115;BME280;49208;50.874;6.466;2023-05-03T14:44:35;101268.09;;;17.77;35.81
63115;BME280;49208;50.874;6.466;2023-05-03T14:47:01;101259.47;;;17.88;37.40
63115;BME280;49208;50.874;6.466;2023-05-03T14:49:27;101264.44;;;17.95;35.08
63115;BME280;49208;50.874;6.466;2023-05-03T14:51:53;101258.53;;;17.89;36.57
63115;BME280;49208;50.874;6.466;2023-05-03T14:54:19;101255.19;;;17.66;36.01
63115;BME280;49208;50.874;6.466;2023-05-03T14:56:47;101256.84;;;17.69;35.96
63115;BME280;49208;50.874;6.466;2023-05-03T14:59:12;101247.13;;;17.84;35.77
63115;BME280;49208;50.874;6.466;2023-05-03T15:01:38;101254.63;;;17.77;35.66
63115;BME280;49208;50.874;6.466;2023-05-03T15:04:03;101260.50;;;17.85;37.16
63115;BME280;49208;50.874;6.466;2023-05-03T15:06:31;101250.03;;;17.79;36.69
63115;BME280;49208;50.874;6.466;2023-05-03T15:08:57;101253.28;;;17.68;36.01
63115;BME280;49208;50.874;6.466;2023-05-03T15:11:24;101251.06;;;17.76;37.17
63115;BME280;49208;50.874;6.466;2023-05-03T15:13:50;101242.72;;;17.81;36.50
63115;BME280;49208;50.874;6.466;2023-05-03T15:16:16;101253.19;;;17.70;36.65
63115;BME280;49208;50.874;6.466;2023-05-03T15:18:42;101249.06;;;17.80;36.65
63115;BME280;49208;50.874;6.466;2023-05-03T15:21:11;101255.09;;;17.68;35.82
63115;BME280;49208;50.874;6.466;2023-05-03T15:23:37;101247.97;;;17.67;35.94
63115;BME280;49208;50.874;6.466;2023-05-03T15:26:02;101238.00;;;17.69;36.03
63115;BME280;49208;50.874;6.466;2023-05-03T15:28:28;101244.00;;;17.74;37.41
63115;BME280;49208;50.874;6.466;2023-05-03T15:30:53;101245.91;;;17.72;37.91
63115;BME280;49208;50.874;6.466;2023-05-03T15:33:19;101235.84;;;17.75;37.54
63115;BME280;49208;50.874;6.466;2023-05-03T15:35:44;101236.03;;;17.72;36.90
63115;BME280;49208;50.874;6.466;2023-05-03T15:38:10;101234.34;;;17.70;36.38
63115;BME280;49208;50.874;6.466;2023-05-03T15:40:35;101242.53;;;17.68;37.67
63115;BME280;49208;50.874;6.466;2023-05-03T15:43:01;101244.78;;;17.76;38.67
63115;BME280;49208;50.874;6.466;2023-05-03T15:45:26;101234.91;;;17.76;38.06
63115;BME280;49208;50.874;6.466;2023-05-03T15:47:54;101231.97;;;17.81;36.59
63115;BME280;49208;50.874;6.466;2023-05-03T15:50:20;101232.28;;;17.75;35.62
63115;BME280;49208;50.874;6.466;2023-05-03T15:52:45;101233.41;;;17.71;36.37
63115;BME280;49208;50.874;6.466;2023-05-03T15:55:11;101234.28;;;17.54;35.68
63115;BME280;49208;50.874;6.466;2023-05-03T15:57:37;101232.38;;;17.56;35.41
63115;BME280;49208;50.874;6.466;2023-05-03T16:00:04;101224.00;;;17.62;35.90
63115;BME280;49208;50.874;6.466;2023-05-03T16:02:49;101219.06;;;17.70;36.81
63115;BME280;49208;50.874;6.466;2023-05-03T16:05:15;101222.44;;;17.74;36.15
63115;BME280;49208;50.874;6.466;2023-05-03T16:07:42;101210.75;;;17.57;36.63
63115;BME280;49208;50.874;6.466;2023-05-03T16:10:07;101201.88;;;17.55;36.71
63115;BME280;49208;50.874;6.466;2023-05-03T16:12:33;101199.53;;;17.49;36.46
63115;BME280;49208;50.874;6.466;2023-05-03T16:14:59;101207.84;;;17.45;36.58
63115;BME280;49208;50.874;6.466;2023-05-03T16:17:25;101215.53;;;17.52;37.08
63115;BME280;49208;50.874;6.466;2023-05-03T16:19:50;101206.47;;;17.53;37.04
63115;BME280;49208;50.874;6.466;2023-05-03T16:22:16;101206.41;;;17.55;36.39
63115;BME280;49208;50.874;6.466;2023-05-03T16:24:41;101204.81;;;17.51;36.96
63115;BME280;49208;50.874;6.466;2023-05-03T16:27:07;101205.84;;;17.48;36.77
63115;BME280;49208;50.874;6.466;2023-05-03T16:29:32;101206.03;;;17.45;37.55
63115;BME280;49208;50.874;6.466;2023-05-03T16:31:59;101201.03;;;17.37;38.26
63115;BME280;49208;50.874;6.466;2023-05-03T16:34:24;101201.97;;;17.36;37.84
63115;BME280;49208;50.874;6.466;2023-05-03T16:36:50;101201.44;;;17.30;37.27
63115;BME280;49208;50.874;6.466;2023-05-03T16:39:16;101200.88;;;17.23;38.69
63115;BME280;49208;50.874;6.466;2023-05-03T16:41:42;101200.34;;;17.16;37.92
63115;BME280;49208;50.874;6.466;2023-05-03T16:44:07;101189.72;;;17.13;37.91
63115;BME280;49208;50.874;6.466;2023-05-03T16:46:34;101187.75;;;17.17;38.65
63115;BME280;49208;50.874;6.466;2023-05-03T16:49:00;101199.44;;;17.16;39.22
63115;BME280;49208;50.874;6.466;2023-05-03T16:51:25;101189.63;;;17.15;37.95
63115;BME280;49208;50.874;6.466;2023-05-03T16:53:52;101189.34;;;17.04;37.69
63115;BME280;49208;50.874;6.466;2023-05-03T16:56:17;101197.47;;;17.02;40.38
63115;BME280;49208;50.874;6.466;2023-05-03T16:58:42;101194.13;;;16.97;40.70
63115;BME280;49208;50.874;6.466;2023-05-03T17:01:08;101186.94;;;16.98;41.20
63115;BME280;49208;50.874;6.466;2023-05-03T17:03:33;101189.72;;;16.96;41.97
63115;BME280;49208;50.874;6.466;2023-05-03T17:05:59;101191.66;;;16.92;42.23
63115;BME280;49208;50.874;6.466;2023-05-03T17:08:25;101185.66;;;16.87;41.88
63115;BME280;49208;50.874;6.466;2023-05-03T17:10:50;101196.84;;;16.78;42.68
63115;BME280;49208;50.874;6.466;2023-05-03T17:13:16;101190.03;;;16.71;43.19
63115;BME280;49208;50.874;6.466;2023-05-03T17:15:41;101185.75;;;16.67;43.59
63115;BME280;49208;50.874;6.466;2023-05-03T17:18:07;101190.63;;;16.59;44.30
63115;BME280;49208;50.874;6.466;2023-05-03T17:20:34;101183.59;;;16.56;44.59
63115;BME280;49208;50.874;6.466;2023-05-03T17:22:59;101176.69;;;16.50;43.90
63115;BME280;49208;50.874;6.466;2023-05-03T17:25:25;101170.81;;;16.42;44.68
63115;BME280;49208;50.874;6.466;2023-05-03T17:27:51;101179.41;;;16.31;44.34
63115;BME280;49208;50.874;6.466;2023-05-03T17:30:16;101180.03;;;16.17;44.55
63115;BME280;49208;50.874;6.466;2023-05-03T17:32:43;101175.19;;;16.07;44.56
63115;BME280;49208;50.874;6.466;2023-05-03T17:35:08;101170.03;;;16.02;45.65
63115;BME280;49208;50.874;6.466;2023-05-03T17:37:36;101175.53;;;15.99;45.69
63115;BME280;49208;50.874;6.466;2023-05-03T17:40:02;101179.25;;;15.96;46.83
63115;BME280;49208;50.874;6.466;2023-05-03T17:42:31;101178.50;;;15.93;46.58
63115;BME280;49208;50.874;6.466;2023-05-03T17:44:58;101166.22;;;15.87;47.20
63115;BME280;49208;50.874;6.466;2023-05-03T17:47:23;101171.00;;;15.81;47.09
63115;BME280;49208;50.874;6.466;2023-05-03T17:49:50;101164.44;;;15.67;48.07
63115;BME280;49208;50.874;6.466;2023-05-03T17:52:15;101167.41;;;15.61;48.22
63115;BME280;49208;50.874;6.466;2023-05-03T17:54:41;101167.63;;;15.56;48.25
63115;BME280;49208;50.874;6.466;2023-05-03T17:57:07;101171.56;;;15.48;48.94
63115;BME280;49208;50.874;6.466;2023-05-03T17:59:33;101176.53;;;15.36;48.51
63115;BME280;49208;50.874;6.466;2023-05-03T18:01:58;101168.97;;;15.26;48.89
63115;BME280;49208;50.874;6.466;2023-05-03T18:04:24;101167.63;;;15.15;49.82
63115;BME280;49208;50.874;6.466;2023-05-03T18:06:53;101176.25;;;15.02;49.60
63115;BME280;49208;50.874;6.466;2023-05-03T18:09:19;101173.25;;;14.87;49.83
63115;BME280;49208;50.874;6.466;2023-05-03T18:11:45;101171.91;;;14.77;49.93
63115;BME280;49208;50.874;6.466;2023-05-03T18:14:11;101164.25;;;14.68;50.76
63115;BME280;49208;50.874;6.466;2023-05-03T18:16:37;101171.78;;;14.58;51.08
63115;BME280;49208;50.874;6.466;2023-05-03T18:19:02;101163.22;;;14.48;51.88
63115;BME280;49208;50.874;6.466;2023-05-03T18:21:29;101165.50;;;14.35;51.94
63115;BME280;49208;50.874;6.466;2023-05-03T18:23:54;101171.19;;;14.28;52.56
63115;BME280;49208;50.874;6.466;2023-05-03T18:26:20;101168.19;;;14.13;53.30
63115;BME280;49208;50.874;6.466;2023-05-03T18:28:45;101170.38;;;14.02;53.95
63115;BME280;49208;50.874;6.466;2023-05-03T18:31:11;101167.34;;;13.88;53.38
63115;BME280;49208;50.874;6.466;2023-05-03T18:33:36;101168.53;;;13.81;54.33
63115;BME280;49208;50.874;6.466;2023-05-03T18:36:04;101170.66;;;13.71;54.50
63115;BME280;49208;50.874;6.466;2023-05-03T18:38:33;101175.41;;;13.63;55.48
63115;BME280;49208;50.874;6.466;2023-05-03T18:40:58;101177.50;;;13.54;54.99
63115;BME280;49208;50.874;6.466;2023-05-03T18:43:24;101174.94;;;13.51;54.66
63115;BME280;49208;50.874;6.466;2023-05-03T18:45:50;101171.63;;;13.45;55.11
63115;BME280;49208;50.874;6.466;2023-05-03T18:48:16;101167.38;;;13.39;54.75
63115;BME280;49208;50.874;6.466;2023-05-03T18:50:41;101169.31;;;13.34;55.30
63115;BME280;49208;50.874;6.466;2023-05-03T18:53:08;101166.81;;;13.29;55.27
63115;BME280;49208;50.874;6.466;2023-05-03T18:55:35;101163.16;;;13.32;54.56
63115;BME280;49208;50.874;6.466;2023-05-03T18:58:00;101166.81;;;13.28;55.22
63115;BME280;49208;50.874;6.466;2023-05-03T19:00:26;101167.00;;;13.23;55.23
63115;BME280;49208;50.874;6.466;2023-05-03T19:02:51;101165.31;;;13.21;55.54
63115;BME280;49208;50.874;6.466;2023-05-03T19:05:17;101169.84;;;13.19;55.21